» Metar & Tafor

23 Maret 2020
METAR
Pukul :
Isi :

METAR WAGI 280730Z 20003KT 9999 SCT011 31/25 Q1010 NOSIG=


10 Juni 2019
TAFOR
Pukul : 00 - 12 UTC
Isi :

TAF WAGI 272300Z 2800/2812 13005KT 9999 SCT012 TEMPO 2806/2808 4000 -RA BKN012=


Hal: << First | < Prev | 1 | Next > | Last >>